createdAt,value
2018-09-13T00:02:21.987Z,11.90
2018-09-13T00:04:52.727Z,11.90
2018-09-13T00:07:22.462Z,11.90
2018-09-13T00:09:52.559Z,11.90
2018-09-13T00:12:22.575Z,11.90
2018-09-13T00:14:52.607Z,11.80
2018-09-13T00:17:22.639Z,11.80
2018-09-13T00:19:52.851Z,11.90
2018-09-13T00:22:22.926Z,11.80
2018-09-13T00:24:52.975Z,11.90
2018-09-13T00:27:23.300Z,11.80
2018-09-13T00:29:53.364Z,11.80
2018-09-13T00:32:23.182Z,11.70
2018-09-13T00:34:53.468Z,11.70
2018-09-13T00:37:23.525Z,11.60
2018-09-13T00:39:53.637Z,11.60
2018-09-13T00:42:23.987Z,11.60
2018-09-13T00:44:54.107Z,11.60
2018-09-13T00:47:24.156Z,11.60
2018-09-13T00:49:54.124Z,11.60
2018-09-13T00:52:24.115Z,11.60
2018-09-13T00:54:54.116Z,11.50
2018-09-13T00:57:24.320Z,11.50
2018-09-13T00:59:54.634Z,11.50
2018-09-13T01:02:24.659Z,11.50
2018-09-13T01:04:54.975Z,11.50
2018-09-13T01:10:15.918Z,11.50
2018-09-13T01:12:46.002Z,11.50
2018-09-13T01:15:16.122Z,11.50
2018-09-13T01:17:46.213Z,11.50
2018-09-13T01:20:16.233Z,11.50
2018-09-13T01:22:46.118Z,11.50
2018-09-13T01:25:16.289Z,11.50
2018-09-13T01:27:46.477Z,11.50
2018-09-13T01:30:16.481Z,11.40
2018-09-13T01:32:46.631Z,11.40
2018-09-13T01:35:16.443Z,11.40
2018-09-13T01:37:46.552Z,11.40
2018-09-13T01:40:16.607Z,11.40
2018-09-13T01:42:47.559Z,11.30
2018-09-13T01:45:17.368Z,11.30
2018-09-13T01:47:47.400Z,11.40
2018-09-13T01:50:17.416Z,11.40
2018-09-13T01:52:47.799Z,11.30
2018-09-13T01:55:17.932Z,11.30
2018-09-13T01:57:48.108Z,11.30
2018-09-13T02:00:18.600Z,11.30
2018-09-13T02:02:48.836Z,11.20
2018-09-13T02:05:18.296Z,11.10
2018-09-13T02:07:48.700Z,11.10
2018-09-13T02:10:18.868Z,11.10
2018-09-13T02:12:49.787Z,11.10
2018-09-13T02:15:19.925Z,11.10
2018-09-13T02:17:50.091Z,11.10
2018-09-13T02:20:20.373Z,11.10
2018-09-13T02:22:50.416Z,11.10
2018-09-13T02:25:20.455Z,11.20
2018-09-13T02:27:50.495Z,11.10
2018-09-13T02:30:20.460Z,11.10
2018-09-13T02:32:50.460Z,11.10
2018-09-13T02:35:20.607Z,11.10
2018-09-13T02:37:50.704Z,11.10
2018-09-13T02:40:20.865Z,11.10
2018-09-13T02:42:51.135Z,11.10
2018-09-13T02:45:21.287Z,11.10
2018-09-13T02:47:51.059Z,11.10
2018-09-13T02:50:21.176Z,11.10
2018-09-13T02:52:51.150Z,11.10
2018-09-13T02:55:21.329Z,11.10
2018-09-13T02:57:51.397Z,11.20
2018-09-13T03:00:22.479Z,11.20
2018-09-13T03:02:52.920Z,11.20
2018-09-13T03:05:24.040Z,11.20
2018-09-13T03:07:54.096Z,11.20
2018-09-13T03:10:24.096Z,11.20
2018-09-13T03:12:54.235Z,11.20
2018-09-13T03:15:24.332Z,11.10
2018-09-13T03:17:54.271Z,11.10
2018-09-13T03:20:24.387Z,11.10
2018-09-13T03:22:54.232Z,11.00
2018-09-13T03:25:24.324Z,11.10
2018-09-13T03:27:54.476Z,11.10
2018-09-13T03:30:24.542Z,11.10
2018-09-13T03:32:54.588Z,11.10
2018-09-13T03:35:27.936Z,11.10
2018-09-13T03:37:58.004Z,11.00
2018-09-13T03:40:28.939Z,11.00
2018-09-13T03:42:59.011Z,11.00
2018-09-13T03:45:28.871Z,11.00
2018-09-13T03:47:59.385Z,11.00
2018-09-13T03:50:28.908Z,11.00
2018-09-13T03:52:59.055Z,11.00
2018-09-13T03:55:29.456Z,11.00
2018-09-13T03:57:59.527Z,11.00
2018-09-13T04:00:29.852Z,11.00
2018-09-13T04:03:00.303Z,11.00
2018-09-13T04:05:30.005Z,11.00
2018-09-13T04:08:00.236Z,11.10
2018-09-13T04:10:30.236Z,11.10
2018-09-13T04:13:00.252Z,11.00
2018-09-13T04:15:30.336Z,11.00
2018-09-13T04:18:00.356Z,10.90
2018-09-13T04:20:31.110Z,10.90
2018-09-13T04:23:02.433Z,10.80
2018-09-13T04:25:32.824Z,10.90
2018-09-13T04:28:02.939Z,10.90
2018-09-13T04:30:33.299Z,10.90
2018-09-13T04:33:02.841Z,10.90
2018-09-13T04:35:32.984Z,10.90
2018-09-13T04:38:03.161Z,10.90
2018-09-13T04:40:34.315Z,10.90
2018-09-13T04:43:03.835Z,10.90
2018-09-13T04:45:33.755Z,10.90
2018-09-13T04:48:03.808Z,10.90
2018-09-13T04:50:34.191Z,11.00
2018-09-13T04:53:04.046Z,11.00
2018-09-13T04:55:33.831Z,11.00
2018-09-13T04:58:04.099Z,11.10
2018-09-13T05:00:34.155Z,11.10
2018-09-13T05:03:03.851Z,11.00
2018-09-13T05:05:34.127Z,11.10
2018-09-13T05:08:04.353Z,11.20
2018-09-13T05:10:35.150Z,11.20
2018-09-13T05:13:05.357Z,11.30
2018-09-13T05:15:35.769Z,11.30
2018-09-13T05:18:07.995Z,11.40
2018-09-13T05:20:38.696Z,11.40
2018-09-13T05:23:09.007Z,11.50
2018-09-13T05:25:39.467Z,11.50
2018-09-13T05:28:08.811Z,11.40
2018-09-13T05:30:39.262Z,11.40
2018-09-13T05:33:09.763Z,11.60
2018-09-13T05:35:40.196Z,11.60
2018-09-13T05:38:10.000Z,11.60
2018-09-13T05:40:41.236Z,11.60
2018-09-13T05:43:11.051Z,11.60
2018-09-13T05:45:41.332Z,11.60
2018-09-13T05:48:11.102Z,11.60
2018-09-13T05:50:40.988Z,11.60
2018-09-13T05:53:11.645Z,11.70
2018-09-13T05:55:41.911Z,11.80
2018-09-13T05:58:12.267Z,11.80
2018-09-13T06:00:42.780Z,11.80
2018-09-13T06:03:14.155Z,11.90
2018-09-13T06:05:44.898Z,11.90
2018-09-13T06:08:16.415Z,11.90
2018-09-13T06:10:46.759Z,12.00
2018-09-13T06:13:18.769Z,12.10
2018-09-13T06:16:45.589Z,12.20
2018-09-13T06:19:15.321Z,12.20
2018-09-13T06:21:45.634Z,12.20
2018-09-13T06:24:15.501Z,12.30
2018-09-13T06:26:45.639Z,12.30
2018-09-13T06:29:15.316Z,12.40
2018-09-13T06:31:45.689Z,12.40
2018-09-13T06:34:16.264Z,12.40
2018-09-13T06:36:46.536Z,12.40
2018-09-13T06:39:16.677Z,12.40
2018-09-13T06:41:47.129Z,12.40
2018-09-13T06:44:17.560Z,12.50
2018-09-13T06:46:47.895Z,12.50
2018-09-13T06:49:17.774Z,12.50
2018-09-13T06:51:47.682Z,12.60
2018-09-13T06:54:18.595Z,12.60
2018-09-13T06:56:48.691Z,12.70
2018-09-13T06:59:19.480Z,12.70
2018-09-13T07:01:49.664Z,12.80
2018-09-13T07:04:19.752Z,12.80
2018-09-13T07:06:50.237Z,12.80
2018-09-13T07:09:20.680Z,12.80
2018-09-13T07:11:50.336Z,12.90
2018-09-13T07:14:20.419Z,13.00
2018-09-13T07:16:50.715Z,13.00
2018-09-13T07:19:20.776Z,13.00
2018-09-13T07:21:51.173Z,13.10
2018-09-13T07:24:21.875Z,13.10
2018-09-13T07:26:52.280Z,13.10
2018-09-13T07:29:23.248Z,13.10
2018-09-13T07:31:53.532Z,13.20
2018-09-13T07:34:23.653Z,13.30
2018-09-13T07:36:54.769Z,13.30
2018-09-13T07:39:25.111Z,13.30
2018-09-13T07:41:56.105Z,13.30
2018-09-13T07:44:26.475Z,13.30
2018-09-13T07:46:56.952Z,13.30
2018-09-13T07:49:27.401Z,13.30
2018-09-13T07:51:57.869Z,13.30
2018-09-13T07:54:29.167Z,13.40
2018-09-13T07:56:59.975Z,13.50
2018-09-13T07:59:30.783Z,13.50
2018-09-13T08:02:01.388Z,13.60
2018-09-13T08:04:31.516Z,13.60
2018-09-13T08:07:01.913Z,13.60
2018-09-13T08:09:32.813Z,13.60
2018-09-13T08:12:03.268Z,13.70
2018-09-13T08:14:33.695Z,13.80
2018-09-13T08:17:03.486Z,13.80
2018-09-13T08:19:33.576Z,13.90
2018-09-13T08:22:04.232Z,13.80
2018-09-13T08:24:34.567Z,13.90
2018-09-13T08:27:05.737Z,13.90
2018-09-13T08:29:36.036Z,14.00
2018-09-13T08:32:06.568Z,14.10
2018-09-13T08:34:37.001Z,14.10
2018-09-13T08:37:07.785Z,14.20
2018-09-13T08:39:38.108Z,14.20
2018-09-13T08:42:08.508Z,14.30
2018-09-13T08:44:39.055Z,14.30
2018-09-13T08:47:09.783Z,14.30
2018-09-13T08:49:40.349Z,14.30
2018-09-13T08:52:10.947Z,14.30
2018-09-13T08:54:41.246Z,14.40
2018-09-13T08:57:12.688Z,14.50
2018-09-13T08:59:43.167Z,14.50
2018-09-13T09:02:13.901Z,14.50
2018-09-13T09:04:44.260Z,14.60
2018-09-13T09:07:14.632Z,14.60
2018-09-13T09:09:45.104Z,14.70
2018-09-13T09:12:15.523Z,14.70
2018-09-13T09:14:45.948Z,14.70
2018-09-13T09:17:16.356Z,14.70
2018-09-13T09:19:46.475Z,14.70
2018-09-13T09:22:16.811Z,14.80
2018-09-13T09:24:47.592Z,14.80
2018-09-13T09:27:18.101Z,14.80
2018-09-13T09:29:48.853Z,14.90
2018-09-13T09:32:19.139Z,15.00
2018-09-13T09:34:49.788Z,15.10
2018-09-13T09:37:20.000Z,15.10
2018-09-13T09:39:50.178Z,15.20
2018-09-13T09:42:20.457Z,15.30
2018-09-13T09:44:50.804Z,15.30
2018-09-13T09:47:21.379Z,15.30
2018-09-13T09:49:51.380Z,15.30
2018-09-13T09:52:21.619Z,15.30
2018-09-13T09:54:51.903Z,15.30
2018-09-13T09:57:21.906Z,15.40
2018-09-13T09:59:52.444Z,15.40
2018-09-13T10:02:23.512Z,15.50
2018-09-13T10:04:53.830Z,15.60
2018-09-13T10:07:24.052Z,15.60
2018-09-13T10:09:54.415Z,15.70
2018-09-13T10:12:24.553Z,15.80
2018-09-13T10:14:59.739Z,15.90
2018-09-13T10:17:34.871Z,16.00
2018-09-13T10:20:10.272Z,16.00
2018-09-13T10:22:45.395Z,16.10
2018-09-13T10:25:20.585Z,16.00
2018-09-13T10:27:55.726Z,16.10
2018-09-13T10:30:30.959Z,16.10
2018-09-13T10:33:06.908Z,16.10
2018-09-13T10:35:42.292Z,16.20
2018-09-13T10:38:18.295Z,16.20
2018-09-13T10:42:56.123Z,16.20
2018-09-13T10:45:31.180Z,16.10
2018-09-13T10:48:06.140Z,16.10
2018-09-13T10:50:39.682Z,16.10
2018-09-13T10:53:14.123Z,16.10
2018-09-13T10:55:44.419Z,16.10
2018-09-13T10:58:14.303Z,16.20
2018-09-13T11:00:44.444Z,16.20
2018-09-13T11:03:14.703Z,16.20
2018-09-13T11:05:44.156Z,16.30
2018-09-13T11:08:14.634Z,16.40
2018-09-13T11:10:44.835Z,16.50
2018-09-13T11:13:20.551Z,16.60
2018-09-13T11:15:52.061Z,16.60
2018-09-13T11:18:22.496Z,16.60
2018-09-13T11:20:52.084Z,16.70
2018-09-13T11:23:22.037Z,16.80
2018-09-13T11:25:52.380Z,16.80
2018-09-13T11:28:22.749Z,16.90
2018-09-13T11:30:57.688Z,16.90
2018-09-13T11:33:27.967Z,16.90
2018-09-13T11:35:58.108Z,16.90
2018-09-13T11:38:29.066Z,17.00
2018-09-13T11:40:59.563Z,16.90
2018-09-13T11:43:29.804Z,17.00
2018-09-13T11:45:59.903Z,17.10
2018-09-13T11:48:30.275Z,17.10
2018-09-13T11:51:00.612Z,17.20
2018-09-13T11:53:31.027Z,17.30
2018-09-13T11:56:32.750Z,17.30
2018-09-13T11:59:03.176Z,17.40
2018-09-13T12:01:33.766Z,17.50
2018-09-13T12:04:03.951Z,17.50
2018-09-13T12:06:34.136Z,17.50
2018-09-13T12:09:04.479Z,17.50
2018-09-13T12:11:34.402Z,17.40
2018-09-13T12:14:04.335Z,17.40
2018-09-13T12:16:35.093Z,17.40
2018-09-13T12:19:05.472Z,17.50
2018-09-13T12:21:35.112Z,17.40
2018-09-13T12:24:05.223Z,17.40
2018-09-13T12:26:35.352Z,17.30
2018-09-13T12:29:06.371Z,17.20
2018-09-13T12:31:36.073Z,17.10
2018-09-13T12:34:06.379Z,17.10
2018-09-13T12:36:37.140Z,17.00
2018-09-13T12:39:10.823Z,16.90
2018-09-13T12:41:41.983Z,16.90
2018-09-13T12:44:11.972Z,16.80
2018-09-13T12:46:42.269Z,16.70
2018-09-13T12:49:12.759Z,16.70
2018-09-13T12:51:46.871Z,16.60
2018-09-13T12:54:16.803Z,16.60
2018-09-13T12:56:48.773Z,16.50
2018-09-13T12:59:19.086Z,16.40
2018-09-13T13:01:49.247Z,16.40
2018-09-13T13:04:19.532Z,16.40
2018-09-13T13:06:50.522Z,16.40
2018-09-13T13:09:20.345Z,16.40
2018-09-13T13:11:50.171Z,16.40
2018-09-13T13:14:20.528Z,16.40
2018-09-13T13:16:51.000Z,16.50
2018-09-13T13:19:21.903Z,16.60
2018-09-13T13:21:52.592Z,16.70
2018-09-13T13:24:22.760Z,16.70
2018-09-13T13:26:52.772Z,16.70
2018-09-13T13:29:23.576Z,16.70
2018-09-13T13:31:54.305Z,16.70
2018-09-13T13:34:23.771Z,16.70
2018-09-13T13:36:54.436Z,16.80
2018-09-13T13:39:23.803Z,16.90
2018-09-13T13:41:53.151Z,16.80
2018-09-13T13:44:23.064Z,16.80
2018-09-13T13:46:53.302Z,16.80
2018-09-13T13:49:23.815Z,16.80
2018-09-13T13:51:54.188Z,16.90
2018-09-13T13:54:24.773Z,16.90
2018-09-13T13:56:55.542Z,16.90
2018-09-13T13:59:25.491Z,17.10
2018-09-13T14:01:55.401Z,17.20
2018-09-13T14:04:25.436Z,17.30
2018-09-13T14:06:56.452Z,17.30
2018-09-13T14:09:25.767Z,17.20
2018-09-13T14:11:55.712Z,17.10
2018-09-13T14:14:25.978Z,17.10
2018-09-13T14:16:58.036Z,17.10
2018-09-13T14:19:28.395Z,17.10
2018-09-13T14:21:57.755Z,17.20
2018-09-13T14:24:27.959Z,17.20
2018-09-13T14:26:58.433Z,17.20
2018-09-13T14:29:28.383Z,17.20
2018-09-13T14:31:58.512Z,17.10
2018-09-13T14:34:28.872Z,17.00
2018-09-13T14:36:59.307Z,16.90
2018-09-13T14:39:29.663Z,16.90
2018-09-13T14:42:00.049Z,16.90
2018-09-13T14:44:31.424Z,16.90
2018-09-13T14:47:01.497Z,16.90
2018-09-13T14:49:31.903Z,17.00
2018-09-13T14:52:02.104Z,16.90
2018-09-13T14:54:32.626Z,16.90
2018-09-13T14:57:08.975Z,16.90
2018-09-13T14:59:39.740Z,16.80
2018-09-13T15:02:10.127Z,16.80
2018-09-13T15:04:40.508Z,16.70
2018-09-13T15:07:10.931Z,16.70
2018-09-13T15:09:41.157Z,16.60
2018-09-13T15:12:11.764Z,16.60
2018-09-13T15:14:42.096Z,16.50
2018-09-13T15:17:13.956Z,16.50
2018-09-13T15:19:44.286Z,16.50
2018-09-13T15:22:14.735Z,16.50
2018-09-13T15:24:45.311Z,16.40
2018-09-13T15:27:15.785Z,16.40
2018-09-13T15:29:46.287Z,16.40
2018-09-13T15:32:16.885Z,16.40
2018-09-13T15:34:47.221Z,16.30
2018-09-13T15:37:17.252Z,16.30
2018-09-13T15:39:48.601Z,16.30
2018-09-13T15:42:20.356Z,16.30
2018-09-13T15:44:50.504Z,16.30
2018-09-13T15:47:20.772Z,16.30
2018-09-13T15:49:51.528Z,16.30
2018-09-13T15:52:21.936Z,16.30
2018-09-13T15:54:52.328Z,16.30
2018-09-13T15:57:24.671Z,16.30
2018-09-13T15:59:55.054Z,16.30
2018-09-13T16:02:25.179Z,16.30
2018-09-13T16:04:55.549Z,16.20
2018-09-13T16:07:25.904Z,16.20
2018-09-13T16:09:59.159Z,16.10
2018-09-13T16:12:29.785Z,16.10
2018-09-13T16:15:00.048Z,16.00
2018-09-13T16:17:30.459Z,16.00
2018-09-13T16:20:00.851Z,15.90
2018-09-13T16:22:31.184Z,15.80
2018-09-13T16:25:01.520Z,15.80
2018-09-13T16:27:31.824Z,15.70
2018-09-13T16:30:02.125Z,15.60
2018-09-13T16:32:32.669Z,15.50
2018-09-13T16:35:03.192Z,15.50
2018-09-13T16:37:39.681Z,15.30
2018-09-13T16:40:14.419Z,15.20
2018-09-13T16:42:53.513Z,15.10
2018-09-13T16:45:31.201Z,15.00
2018-09-13T16:48:03.764Z,14.90
2018-09-13T16:50:34.117Z,14.90
2018-09-13T16:53:04.865Z,14.80
2018-09-13T16:55:35.075Z,14.70
2018-09-13T16:58:05.152Z,14.60
2018-09-13T17:00:35.845Z,14.50
2018-09-13T17:03:06.306Z,14.50
2018-09-13T17:05:38.116Z,14.40
2018-09-13T17:08:08.476Z,14.40
2018-09-13T17:10:39.131Z,14.30
2018-09-13T17:13:09.575Z,14.20
2018-09-13T17:15:39.860Z,14.10
2018-09-13T17:18:09.984Z,14.00
2018-09-13T17:20:40.052Z,13.90
2018-09-13T17:23:10.622Z,13.90
2018-09-13T17:25:41.043Z,13.80
2018-09-13T17:28:11.374Z,13.80
2018-09-13T17:30:42.428Z,13.70
2018-09-13T17:33:12.726Z,13.60
2018-09-13T17:35:42.524Z,13.60
2018-09-13T17:38:12.581Z,13.60
2018-09-13T17:40:42.516Z,13.50
2018-09-13T17:43:12.689Z,13.40
2018-09-13T17:45:42.588Z,13.40
2018-09-13T17:48:13.059Z,13.40
2018-09-13T17:50:43.243Z,13.40
2018-09-13T17:53:12.852Z,13.50
2018-09-13T17:55:43.984Z,13.50
2018-09-13T17:58:17.302Z,13.50
2018-09-13T18:00:47.625Z,13.40
2018-09-13T18:03:17.912Z,13.40
2018-09-13T18:05:47.644Z,13.40
2018-09-13T18:08:18.187Z,13.40
2018-09-13T18:10:48.651Z,13.40
2018-09-13T18:13:18.876Z,13.40
2018-09-13T18:15:48.913Z,13.30
2018-09-13T18:18:22.164Z,13.30
2018-09-13T18:20:52.565Z,13.30
2018-09-13T18:23:22.936Z,13.30
2018-09-13T18:25:52.064Z,13.30
2018-09-13T18:28:23.347Z,13.30
2018-09-13T18:30:53.431Z,13.20
2018-09-13T18:33:24.489Z,13.20
2018-09-13T18:35:54.531Z,13.10
2018-09-13T18:38:24.936Z,13.10
2018-09-13T18:40:54.744Z,13.10
2018-09-13T18:43:25.148Z,13.00
2018-09-13T18:45:54.806Z,12.90
2018-09-13T18:48:26.480Z,12.80
2018-09-13T18:50:56.512Z,12.70
2018-09-13T18:53:26.748Z,12.60
2018-09-13T18:55:56.924Z,12.50
2018-09-13T18:58:26.895Z,12.50
2018-09-13T19:00:57.225Z,12.50
2018-09-13T19:03:27.585Z,12.50
2018-09-13T19:05:58.016Z,12.40
2018-09-13T19:08:28.548Z,12.40
2018-09-13T19:10:59.966Z,12.40
2018-09-13T19:13:30.108Z,12.40
2018-09-13T19:16:00.408Z,12.50
2018-09-13T19:18:31.715Z,12.50
2018-09-13T19:21:02.308Z,12.50
2018-09-13T19:23:32.375Z,12.50
2018-09-13T19:26:06.024Z,12.60
2018-09-13T19:28:36.398Z,12.60
2018-09-13T19:31:06.845Z,12.60
2018-09-13T19:33:37.794Z,12.60
2018-09-13T19:36:08.673Z,12.60
2018-09-13T19:38:40.084Z,12.60
2018-09-13T19:41:10.180Z,12.60
2018-09-13T19:43:40.335Z,12.60
2018-09-13T19:46:10.529Z,12.60
2018-09-13T19:48:40.359Z,12.70
2018-09-13T19:51:10.447Z,12.70
2018-09-13T19:53:40.772Z,12.70
2018-09-13T19:56:10.982Z,12.70
2018-09-13T19:58:45.125Z,12.70
2018-09-13T20:01:15.323Z,12.70
2018-09-13T20:03:45.656Z,12.70
2018-09-13T20:06:15.758Z,12.60
2018-09-13T20:08:45.816Z,12.50
2018-09-13T20:11:16.203Z,12.40
2018-09-13T20:13:46.195Z,12.30
2018-09-13T20:16:16.400Z,12.30
2018-09-13T20:18:47.128Z,12.30
2018-09-13T20:21:17.853Z,12.30
2018-09-13T20:23:47.666Z,12.30
2018-09-13T20:26:17.828Z,12.30
2018-09-13T20:28:48.309Z,12.40
2018-09-13T20:31:18.627Z,12.40
2018-09-13T20:33:48.438Z,12.20
2018-09-13T20:36:18.308Z,12.10
2018-09-13T20:38:48.738Z,12.10
2018-09-13T20:41:19.575Z,12.10
2018-09-13T20:43:50.004Z,12.10
2018-09-13T20:46:20.161Z,12.10
2018-09-13T20:48:50.339Z,12.10
2018-09-13T20:51:20.394Z,12.10
2018-09-13T20:53:50.438Z,12.00
2018-09-13T20:56:21.043Z,12.00
2018-09-13T20:58:51.504Z,11.90
2018-09-13T21:01:21.951Z,11.90
2018-09-13T21:03:52.240Z,11.90
2018-09-13T21:06:22.437Z,11.90
2018-09-13T21:08:52.617Z,11.90
2018-09-13T21:11:22.780Z,11.90
2018-09-13T21:13:53.551Z,11.80
2018-09-13T21:16:23.629Z,11.80
2018-09-13T21:18:54.084Z,11.80
2018-09-13T21:21:24.704Z,11.80
2018-09-13T21:23:54.491Z,11.80
2018-09-13T21:26:24.631Z,11.80
2018-09-13T21:28:54.884Z,11.80
2018-09-13T21:31:24.536Z,11.90
2018-09-13T21:33:54.608Z,11.90
2018-09-13T21:36:25.164Z,11.90
2018-09-13T21:38:58.781Z,11.90
2018-09-13T21:41:29.469Z,11.90
2018-09-13T21:43:59.716Z,11.90
2018-09-13T21:46:29.532Z,11.90
2018-09-13T21:48:59.871Z,11.80
2018-09-13T21:51:29.981Z,11.80
2018-09-13T21:54:00.544Z,11.70
2018-09-13T21:56:30.767Z,11.70
2018-09-13T21:59:01.112Z,11.60
2018-09-13T22:01:31.505Z,11.60
2018-09-13T22:04:01.471Z,11.60
2018-09-13T22:06:31.603Z,11.50
2018-09-13T22:09:01.840Z,11.50
2018-09-13T22:11:32.018Z,11.40
2018-09-13T22:14:02.270Z,11.40
2018-09-13T22:16:32.528Z,11.40
2018-09-13T22:19:02.521Z,11.40
2018-09-13T22:21:34.367Z,11.30
2018-09-13T22:24:05.195Z,11.30
2018-09-13T22:26:36.528Z,11.30
2018-09-13T22:29:06.723Z,11.30
2018-09-13T22:31:36.834Z,11.20
2018-09-13T22:34:08.976Z,11.20
2018-09-13T22:36:39.264Z,11.10
2018-09-13T22:39:12.125Z,11.10
2018-09-13T22:41:42.456Z,11.00
2018-09-13T22:44:13.095Z,10.90
2018-09-13T22:46:44.098Z,10.90
2018-09-13T22:49:15.583Z,10.80
2018-09-13T22:51:45.608Z,10.80
2018-09-13T22:54:16.176Z,10.80
2018-09-13T22:56:46.568Z,10.70
2018-09-13T22:59:17.988Z,10.70
2018-09-13T23:01:48.675Z,10.70
2018-09-13T23:04:18.960Z,10.70
2018-09-13T23:06:49.037Z,10.60
2018-09-13T23:09:19.196Z,10.60
2018-09-13T23:11:49.180Z,10.50
2018-09-13T23:14:19.915Z,10.50
2018-09-13T23:16:50.005Z,10.50
2018-09-13T23:19:24.472Z,10.50
2018-09-13T23:21:54.528Z,10.50
2018-09-13T23:24:24.219Z,10.40
2018-09-13T23:26:54.877Z,10.40
2018-09-13T23:29:25.268Z,10.40
2018-09-13T23:31:55.597Z,10.40
2018-09-13T23:34:26.415Z,10.50
2018-09-13T23:36:56.905Z,10.40
2018-09-13T23:39:32.723Z,10.40
2018-09-13T23:42:03.024Z,10.40
2018-09-13T23:44:33.289Z,10.40
2018-09-13T23:47:02.467Z,10.50
2018-09-13T23:49:31.649Z,10.50
2018-09-13T23:52:02.199Z,10.60
2018-09-13T23:54:32.797Z,10.60
2018-09-13T23:57:03.004Z,10.60
2018-09-13T23:59:33.038Z,10.70
